createdAt,value
2022-09-03T00:02:15.847Z,61.32
2022-09-03T00:05:06.669Z,61.00
2022-09-03T00:07:43.652Z,61.36
2022-09-03T00:10:15.758Z,61.48
2022-09-03T00:12:45.710Z,61.38
2022-09-03T00:15:16.094Z,61.82
2022-09-03T00:17:48.909Z,61.78
2022-09-03T00:20:21.661Z,61.80
2022-09-03T00:22:52.390Z,61.48
2022-09-03T00:25:26.693Z,61.57
2022-09-03T00:27:58.861Z,62.01
2022-09-03T00:30:28.041Z,62.13
2022-09-03T00:33:01.887Z,61.90
2022-09-03T00:35:36.871Z,62.01
2022-09-03T00:38:06.809Z,62.14
2022-09-03T00:40:54.425Z,61.96
2022-09-03T00:43:34.431Z,61.77
2022-09-03T00:46:11.348Z,62.22
2022-09-03T00:48:54.032Z,62.40
2022-09-03T00:51:33.447Z,62.19
2022-09-03T00:54:10.614Z,62.16
2022-09-03T00:56:47.708Z,62.49
2022-09-03T00:59:28.017Z,62.49
2022-09-03T01:02:14.537Z,62.29
2022-09-03T01:04:58.237Z,62.57
2022-09-03T01:07:40.100Z,62.66
2022-09-03T01:10:27.390Z,63.03
2022-09-03T01:13:02.173Z,63.05
2022-09-03T01:15:40.054Z,63.01
2022-09-03T01:18:18.819Z,62.92
2022-09-03T01:20:55.515Z,63.01
2022-09-03T01:23:55.320Z,62.86
2022-09-03T01:26:33.911Z,62.61
2022-09-03T01:29:16.169Z,62.84
2022-09-03T01:31:54.340Z,63.26
2022-09-03T01:34:34.243Z,62.70
2022-09-03T01:37:16.900Z,63.23
2022-09-03T01:39:59.558Z,63.08
2022-09-03T01:42:41.132Z,63.26
2022-09-03T01:45:33.854Z,62.91
2022-09-03T01:48:33.549Z,63.19
2022-09-03T01:51:12.195Z,62.92
2022-09-03T01:53:57.607Z,63.12
2022-09-03T01:56:37.883Z,62.99
2022-09-03T01:59:15.040Z,63.38
2022-09-03T02:01:48.068Z,63.41
2022-09-03T02:04:20.520Z,63.59
2022-09-03T02:06:49.793Z,63.22
2022-09-03T02:09:18.435Z,63.53
2022-09-03T02:11:52.109Z,63.63
2022-09-03T02:14:20.644Z,63.59
2022-09-03T02:16:50.468Z,63.56
2022-09-03T02:19:19.703Z,63.76
2022-09-03T02:21:52.638Z,63.67
2022-09-03T02:24:20.966Z,63.51
2022-09-03T02:26:48.919Z,63.53
2022-09-03T02:29:18.500Z,63.87
2022-09-03T02:31:46.510Z,63.63
2022-09-03T02:34:16.183Z,63.81
2022-09-03T02:36:46.375Z,63.97
2022-09-03T02:39:15.290Z,64.05
2022-09-03T02:41:43.869Z,64.00
2022-09-03T02:44:17.628Z,64.20
2022-09-03T02:46:51.568Z,63.89
2022-09-03T02:49:20.792Z,63.89
2022-09-03T02:51:48.745Z,63.99
2022-09-03T02:54:20.748Z,64.25
2022-09-03T02:56:49.786Z,64.19
2022-09-03T02:59:18.185Z,64.32
2022-09-03T03:01:46.646Z,64.07
2022-09-03T03:04:14.911Z,63.64
2022-09-03T03:06:47.717Z,64.26
2022-09-03T03:09:15.898Z,64.23
2022-09-03T03:11:44.173Z,64.28
2022-09-03T03:14:12.244Z,64.19
2022-09-03T03:16:40.228Z,64.46
2022-09-03T03:19:08.391Z,64.78
2022-09-03T03:21:36.458Z,64.48
2022-09-03T03:24:07.058Z,64.96
2022-09-03T03:26:35.090Z,64.69
2022-09-03T03:29:05.049Z,64.73
2022-09-03T03:31:33.832Z,64.94
2022-09-03T03:34:04.273Z,64.59
2022-09-03T03:36:34.760Z,64.62
2022-09-03T03:39:03.104Z,64.41
2022-09-03T03:41:33.724Z,64.75
2022-09-03T03:44:03.380Z,64.41
2022-09-03T03:46:34.637Z,64.33
2022-09-03T03:49:02.944Z,64.71
2022-09-03T03:51:32.620Z,64.63
2022-09-03T03:54:04.473Z,64.50
2022-09-03T03:56:34.824Z,64.72
2022-09-03T03:59:02.982Z,64.82
2022-09-03T04:01:31.235Z,64.82
2022-09-03T04:04:00.570Z,64.70
2022-09-03T04:06:29.576Z,64.57
2022-09-03T04:08:58.810Z,64.40
2022-09-03T04:11:27.209Z,63.94
2022-09-03T04:13:59.966Z,64.17
2022-09-03T04:16:29.609Z,64.45
2022-09-03T04:18:58.291Z,64.58
2022-09-03T04:21:28.557Z,65.04
2022-09-03T04:23:57.636Z,64.98
2022-09-03T04:26:28.343Z,64.93
2022-09-03T04:28:58.143Z,65.16
2022-09-03T04:31:26.652Z,65.32
2022-09-03T04:33:55.752Z,65.21
2022-09-03T04:36:25.757Z,64.40
2022-09-03T04:38:55.533Z,64.50
2022-09-03T04:41:25.916Z,64.34
2022-09-03T04:43:54.731Z,64.38
2022-09-03T04:46:26.800Z,64.74
2022-09-03T04:48:57.049Z,64.60
2022-09-03T04:51:28.114Z,64.62
2022-09-03T04:53:58.601Z,65.04
2022-09-03T04:56:28.818Z,64.82
2022-09-03T04:58:59.296Z,65.00
2022-09-03T05:01:32.667Z,64.73
2022-09-03T05:04:01.404Z,64.75
2022-09-03T05:06:31.615Z,64.37
2022-09-03T05:09:00.320Z,64.11
2022-09-03T05:11:29.684Z,64.06
2022-09-03T05:14:00.946Z,64.00
2022-09-03T05:16:52.610Z,64.05
2022-09-03T05:19:21.463Z,63.93
2022-09-03T05:21:49.603Z,63.73
2022-09-03T05:24:18.663Z,63.98
2022-09-03T05:26:49.041Z,64.14
2022-09-03T05:29:19.980Z,64.28
2022-09-03T05:31:49.581Z,63.99
2022-09-03T05:34:18.461Z,64.05
2022-09-03T05:36:47.077Z,63.83
2022-09-03T05:39:15.541Z,63.62
2022-09-03T05:41:43.850Z,63.43
2022-09-03T05:44:12.194Z,63.62
2022-09-03T05:46:40.398Z,63.60
2022-09-03T05:49:11.651Z,63.87
2022-09-03T05:51:40.585Z,63.44
2022-09-03T05:54:09.771Z,63.64
2022-09-03T05:56:41.057Z,63.55
2022-09-03T05:59:11.100Z,63.30
2022-09-03T06:01:41.261Z,63.51
2022-09-03T06:04:17.057Z,63.61
2022-09-03T06:06:46.906Z,63.76
2022-09-03T06:09:18.490Z,63.26
2022-09-03T06:11:50.359Z,62.77
2022-09-03T06:14:20.399Z,62.73
2022-09-03T06:16:50.117Z,60.37
2022-09-03T06:19:20.606Z,59.87
2022-09-03T06:21:48.966Z,59.61
2022-09-03T06:24:19.129Z,60.55
2022-09-03T06:26:48.464Z,60.71
2022-09-03T06:29:18.420Z,60.24
2022-09-03T06:31:52.605Z,60.43
2022-09-03T06:34:28.337Z,60.17
2022-09-03T06:36:56.319Z,60.01
2022-09-03T06:39:25.536Z,60.09
2022-09-03T06:41:54.041Z,59.59
2022-09-03T06:44:28.608Z,60.04
2022-09-03T06:47:00.358Z,59.86
2022-09-03T06:49:31.560Z,58.98
2022-09-03T06:51:59.705Z,57.76
2022-09-03T06:54:27.900Z,54.13
2022-09-03T06:56:56.234Z,53.07
2022-09-03T06:59:24.460Z,51.46
2022-09-03T07:02:07.115Z,50.48
2022-09-03T07:04:36.951Z,49.75
2022-09-03T07:07:05.449Z,49.46
2022-09-03T07:09:36.205Z,49.98
2022-09-03T07:12:04.412Z,47.41
2022-09-03T07:14:32.961Z,50.29
2022-09-03T07:17:01.145Z,51.24
2022-09-03T07:19:29.155Z,48.44
2022-09-03T07:21:58.614Z,48.78
2022-09-03T07:24:27.815Z,48.34
2022-09-03T07:26:58.124Z,51.99
2022-09-03T07:29:26.119Z,52.44
2022-09-03T07:31:54.423Z,49.08
2022-09-03T07:34:26.706Z,50.08
2022-09-03T07:36:55.267Z,49.23
2022-09-03T07:39:24.856Z,49.37
2022-09-03T07:41:52.993Z,49.55
2022-09-03T07:44:22.759Z,50.23
2022-09-03T07:46:52.094Z,48.48
2022-09-03T07:49:22.483Z,49.71
2022-09-03T07:51:54.682Z,48.64
2022-09-03T07:54:26.476Z,49.36
2022-09-03T07:57:10.198Z,47.23
2022-09-03T07:59:40.888Z,44.69
2022-09-03T08:02:10.169Z,46.16
2022-09-03T08:04:38.548Z,45.47
2022-09-03T08:07:06.762Z,46.04
2022-09-03T08:09:36.232Z,47.29
2022-09-03T08:12:05.696Z,46.42
2022-09-03T08:14:37.767Z,47.20
2022-09-03T08:17:12.687Z,48.21
2022-09-03T08:19:42.133Z,48.69
2022-09-03T08:22:10.667Z,49.54
2022-09-03T08:24:40.515Z,50.32
2022-09-03T08:27:09.782Z,49.34
2022-09-03T08:30:28.622Z,48.45
2022-09-03T08:37:18.762Z,47.78
2022-09-03T08:40:50.132Z,48.32
2022-09-03T08:46:05.071Z,48.26
2022-09-03T08:48:34.977Z,48.87
2022-09-03T08:51:04.816Z,48.53
2022-09-03T08:53:41.448Z,47.99
2022-09-03T08:56:14.620Z,48.15
2022-09-03T08:58:43.928Z,48.00
2022-09-03T09:01:24.847Z,48.17
2022-09-03T09:04:03.833Z,47.25
2022-09-03T09:06:40.287Z,47.49
2022-09-03T09:09:55.804Z,46.35
2022-09-03T09:13:39.607Z,44.94
2022-09-03T09:16:39.902Z,44.94
2022-09-03T09:19:35.671Z,44.15
2022-09-03T09:22:12.688Z,42.99
2022-09-03T09:24:46.130Z,42.39
2022-09-03T09:27:26.529Z,41.28
2022-09-03T09:29:56.429Z,39.78
2022-09-03T09:32:40.537Z,39.81
2022-09-03T09:35:12.695Z,38.45
2022-09-03T09:37:57.757Z,38.10
2022-09-03T09:47:26.678Z,37.53
2022-09-03T09:54:21.719Z,37.61
2022-09-03T09:57:02.524Z,38.54
2022-09-03T09:59:33.396Z,40.89
2022-09-03T10:02:22.267Z,38.52
2022-09-03T10:06:17.458Z,38.07
2022-09-03T10:08:49.801Z,37.60
2022-09-03T10:25:00.190Z,37.61
2022-09-03T10:27:30.273Z,37.23
2022-09-03T10:30:00.990Z,33.79
2022-09-03T10:33:23.491Z,33.19
2022-09-03T10:36:19.177Z,34.20
2022-09-03T10:38:54.816Z,33.95
2022-09-03T10:41:42.472Z,36.41
2022-09-03T10:44:35.639Z,35.81
2022-09-03T10:47:23.066Z,34.26
2022-09-03T10:50:02.508Z,36.02
2022-09-03T10:52:55.171Z,34.05
2022-09-03T10:56:13.877Z,31.92
2022-09-03T10:59:33.982Z,27.88
2022-09-03T11:02:31.643Z,22.10
2022-09-03T11:05:04.661Z,22.44
2022-09-03T11:07:38.643Z,20.54
2022-09-03T11:10:15.806Z,20.74
2022-09-03T11:12:49.252Z,20.02
2022-09-03T11:16:08.406Z,21.27
2022-09-03T11:22:23.822Z,24.54
2022-09-03T11:25:07.369Z,25.91
2022-09-03T11:28:13.810Z,27.72
2022-09-03T11:30:54.414Z,26.88
2022-09-03T11:33:31.204Z,27.37
2022-09-03T11:36:02.939Z,28.41
2022-09-03T11:39:59.534Z,26.87
2022-09-03T11:42:37.853Z,27.02
2022-09-03T11:45:23.158Z,26.03
2022-09-03T11:47:55.262Z,27.06
2022-09-03T11:51:34.602Z,25.22
2022-09-03T11:57:44.216Z,22.51
2022-09-03T12:00:27.184Z,23.74
2022-09-03T12:03:03.520Z,25.02
2022-09-03T12:06:02.194Z,26.71
2022-09-03T12:09:02.575Z,27.99
2022-09-03T12:11:43.733Z,29.81
2022-09-03T12:15:02.751Z,29.17
2022-09-03T12:17:36.598Z,31.38
2022-09-03T12:20:14.159Z,32.93
2022-09-03T12:22:42.486Z,34.15
2022-09-03T12:25:15.106Z,33.56
2022-09-03T12:27:45.797Z,34.31
2022-09-03T12:30:18.410Z,34.80
2022-09-03T12:32:48.787Z,36.42
2022-09-03T12:38:13.841Z,36.59
2022-09-03T12:43:37.585Z,36.51
2022-09-03T12:46:10.679Z,37.43
2022-09-03T12:48:43.617Z,38.43
2022-09-03T12:54:01.397Z,38.76
2022-09-03T12:56:35.170Z,40.24
2022-09-03T12:59:06.855Z,39.94
2022-09-03T13:01:43.957Z,40.89
2022-09-03T13:04:17.029Z,40.31
2022-09-03T13:06:54.111Z,40.86
2022-09-03T13:09:24.943Z,40.88
2022-09-03T13:11:55.643Z,41.15
2022-09-03T13:14:30.400Z,41.27
2022-09-03T13:17:25.012Z,41.31
2022-09-03T13:20:06.938Z,40.72
2022-09-03T13:23:19.578Z,40.73
2022-09-03T13:25:57.825Z,40.56
2022-09-03T13:28:44.469Z,40.75
2022-09-03T13:31:28.213Z,40.17
2022-09-03T13:34:03.010Z,40.57
2022-09-03T13:36:39.899Z,40.29
2022-09-03T13:39:22.218Z,39.61
2022-09-03T13:41:56.221Z,40.48
2022-09-03T13:44:40.736Z,39.22
2022-09-03T13:47:15.781Z,40.38
2022-09-03T13:50:13.462Z,40.64
2022-09-03T13:52:47.646Z,40.77
2022-09-03T13:55:23.162Z,40.35
2022-09-03T13:58:01.733Z,39.99
2022-09-03T14:00:41.306Z,40.54
2022-09-03T14:03:14.618Z,40.81
2022-09-03T14:06:01.482Z,39.87
2022-09-03T14:08:35.613Z,40.54
2022-09-03T14:11:21.771Z,40.28
2022-09-03T14:14:01.997Z,41.11
2022-09-03T14:16:43.097Z,40.83
2022-09-03T14:19:36.217Z,41.12
2022-09-03T14:27:12.345Z,41.58
2022-09-03T14:30:03.180Z,41.15
2022-09-03T14:32:48.269Z,40.82
2022-09-03T14:35:33.021Z,40.99
2022-09-03T14:42:01.438Z,40.36
2022-09-03T14:44:46.313Z,40.20
2022-09-03T14:47:30.051Z,40.95
2022-09-03T14:50:12.067Z,40.36
2022-09-03T14:53:00.985Z,40.62
2022-09-03T14:56:00.124Z,40.69
2022-09-03T14:58:50.007Z,42.22
2022-09-03T15:01:26.977Z,41.65
2022-09-03T15:04:26.507Z,40.53
2022-09-03T15:07:14.286Z,40.43
2022-09-03T15:09:48.229Z,42.33
2022-09-03T15:12:22.259Z,42.27
2022-09-03T15:14:55.827Z,41.97
2022-09-03T15:17:41.866Z,41.08
2022-09-03T15:20:21.882Z,40.55
2022-09-03T15:23:13.222Z,42.29
2022-09-03T15:26:07.598Z,41.58
2022-09-03T15:28:47.045Z,41.28
2022-09-03T15:31:23.635Z,42.09
2022-09-03T15:33:58.634Z,42.55
2022-09-03T15:36:29.519Z,43.33
2022-09-03T15:39:03.227Z,43.52
2022-09-03T15:41:39.736Z,43.68
2022-09-03T15:44:18.423Z,43.43
2022-09-03T15:46:57.759Z,44.14
2022-09-03T15:49:38.995Z,44.04
2022-09-03T15:52:21.078Z,45.38
2022-09-03T15:55:02.465Z,43.97
2022-09-03T15:57:36.873Z,44.84
2022-09-03T16:00:10.798Z,46.29
2022-09-03T16:02:45.898Z,44.30
2022-09-03T16:05:19.052Z,45.56
2022-09-03T16:08:05.962Z,46.02
2022-09-03T16:10:46.912Z,45.93
2022-09-03T16:13:33.750Z,46.85
2022-09-03T16:16:03.544Z,47.56
2022-09-03T16:18:36.303Z,47.99
2022-09-03T16:21:07.858Z,48.27
2022-09-03T16:23:42.455Z,49.33
2022-09-03T16:26:17.362Z,49.44
2022-09-03T16:28:53.312Z,49.49
2022-09-03T16:31:39.884Z,48.92
2022-09-03T16:34:18.981Z,49.61
2022-09-03T16:36:56.747Z,49.42
2022-09-03T16:39:34.156Z,49.88
2022-09-03T16:42:11.625Z,50.75
2022-09-03T16:44:52.828Z,51.26
2022-09-03T16:47:34.481Z,51.06
2022-09-03T16:50:15.223Z,52.00
2022-09-03T16:52:53.798Z,52.01
2022-09-03T16:55:27.595Z,52.33
2022-09-03T16:58:10.817Z,52.26
2022-09-03T17:00:51.234Z,52.24
2022-09-03T17:03:41.121Z,52.87
2022-09-03T17:06:22.620Z,53.06
2022-09-03T17:08:58.544Z,53.99
2022-09-03T17:11:43.419Z,54.07
2022-09-03T17:14:42.716Z,53.84
2022-09-03T17:17:22.678Z,54.57
2022-09-03T17:19:57.902Z,54.90
2022-09-03T17:22:40.883Z,55.48
2022-09-03T17:25:22.289Z,55.48
2022-09-03T17:27:54.382Z,55.86
2022-09-03T17:30:30.803Z,55.61
2022-09-03T17:33:35.374Z,55.54
2022-09-03T17:36:12.148Z,56.14
2022-09-03T17:39:17.527Z,56.42
2022-09-03T17:41:53.182Z,56.93
2022-09-03T17:44:35.547Z,57.24
2022-09-03T17:47:17.492Z,57.23
2022-09-03T17:49:50.448Z,57.22
2022-09-03T17:52:29.689Z,57.58
2022-09-03T17:55:01.337Z,58.12
2022-09-03T17:57:33.234Z,58.50
2022-09-03T18:00:04.248Z,59.02
2022-09-03T18:02:44.482Z,59.81
2022-09-03T18:05:19.904Z,60.17
2022-09-03T18:07:55.729Z,60.38
2022-09-03T18:10:31.228Z,60.50
2022-09-03T18:13:08.427Z,60.99
2022-09-03T18:15:40.645Z,61.47
2022-09-03T18:18:18.303Z,60.94
2022-09-03T18:21:23.273Z,61.33
2022-09-03T18:24:19.942Z,61.41
2022-09-03T18:27:14.121Z,62.01
2022-09-03T18:30:05.688Z,62.04
2022-09-03T18:32:51.718Z,62.26
2022-09-03T18:35:38.907Z,62.97
2022-09-03T18:38:24.359Z,63.32
2022-09-03T18:41:15.344Z,62.84
2022-09-03T18:44:10.464Z,63.05
2022-09-03T18:48:01.694Z,63.06
2022-09-03T18:50:19.315Z,62.83
2022-09-03T18:53:14.428Z,62.99
2022-09-03T18:56:14.347Z,62.94
2022-09-03T18:59:12.394Z,62.92
2022-09-03T19:02:00.715Z,63.82
2022-09-03T19:05:00.708Z,63.89
2022-09-03T19:08:00.439Z,64.08
2022-09-03T19:10:59.166Z,64.29
2022-09-03T19:13:51.963Z,63.66
2022-09-03T19:16:49.391Z,63.90
2022-09-03T19:20:06.806Z,63.89
2022-09-03T19:22:54.224Z,64.47
2022-09-03T19:25:41.064Z,64.60
2022-09-03T19:28:34.646Z,64.46
2022-09-03T19:31:43.422Z,64.70
2022-09-03T19:34:45.366Z,64.54
2022-09-03T19:37:36.887Z,64.78
2022-09-03T19:40:43.308Z,64.70
2022-09-03T19:43:38.403Z,65.23
2022-09-03T19:46:29.319Z,65.29
2022-09-03T19:49:22.014Z,65.86
2022-09-03T19:52:18.154Z,65.93
2022-09-03T19:55:05.989Z,65.91
2022-09-03T19:57:51.400Z,66.37
2022-09-03T20:00:48.167Z,66.32
2022-09-03T20:03:34.481Z,66.31
2022-09-03T20:06:23.750Z,66.53
2022-09-03T20:09:10.198Z,67.17
2022-09-03T20:11:40.301Z,66.83
2022-09-03T20:14:14.953Z,67.00
2022-09-03T20:16:56.381Z,66.80
2022-09-03T20:19:36.850Z,67.19
2022-09-03T20:22:13.147Z,66.87
2022-09-03T20:24:56.559Z,67.14
2022-09-03T20:27:37.347Z,67.62
2022-09-03T20:30:09.285Z,67.32
2022-09-03T20:32:57.950Z,67.29
2022-09-03T20:35:41.894Z,67.58
2022-09-03T20:38:28.626Z,67.82
2022-09-03T20:41:08.785Z,68.03
2022-09-03T20:43:50.903Z,67.61
2022-09-03T20:46:31.045Z,67.98
2022-09-03T20:49:09.816Z,67.82
2022-09-03T20:51:43.246Z,67.98
2022-09-03T20:54:18.532Z,68.38
2022-09-03T20:57:00.532Z,68.41
2022-09-03T20:59:44.481Z,68.33
2022-09-03T21:02:25.834Z,68.41
2022-09-03T21:05:07.040Z,68.23
2022-09-03T21:07:45.799Z,68.42
2022-09-03T21:10:21.102Z,68.67
2022-09-03T21:12:54.625Z,68.76
2022-09-03T21:15:29.635Z,68.75
2022-09-03T21:18:07.958Z,68.79
2022-09-03T21:20:45.851Z,68.67
2022-09-03T21:23:20.985Z,69.11
2022-09-03T21:25:56.860Z,69.09
2022-09-03T21:28:31.091Z,68.50
2022-09-03T21:31:03.592Z,68.94
2022-09-03T21:33:36.053Z,69.16
2022-09-03T21:36:10.524Z,69.46
2022-09-03T21:38:49.250Z,69.30
2022-09-03T21:41:23.119Z,69.35
2022-09-03T21:43:57.846Z,69.74
2022-09-03T21:46:32.269Z,69.76
2022-09-03T21:49:03.670Z,69.99
2022-09-03T21:51:39.787Z,69.68
2022-09-03T21:54:12.723Z,69.99
2022-09-03T21:57:06.745Z,69.80
2022-09-03T22:00:12.546Z,70.11
2022-09-03T22:02:42.082Z,70.09
2022-09-03T22:05:10.441Z,70.05
2022-09-03T22:07:53.944Z,70.06
2022-09-03T22:10:26.780Z,70.20
2022-09-03T22:13:09.412Z,70.51
2022-09-03T22:15:38.817Z,70.61
2022-09-03T22:18:15.434Z,70.60
2022-09-03T22:20:57.864Z,70.72
2022-09-03T22:23:42.871Z,70.79
2022-09-03T22:26:25.247Z,70.48
2022-09-03T22:29:06.982Z,70.55
2022-09-03T22:31:47.260Z,70.61
2022-09-03T22:34:34.726Z,70.56
2022-09-03T22:37:04.005Z,70.25
2022-09-03T22:39:39.572Z,70.83
2022-09-03T22:42:23.462Z,70.70
2022-09-03T22:45:19.785Z,70.56
2022-09-03T22:47:59.033Z,70.49
2022-09-03T22:50:32.534Z,70.94
2022-09-03T22:53:13.229Z,70.99
2022-09-03T22:55:47.621Z,70.82
2022-09-03T22:58:22.210Z,71.16
2022-09-03T23:00:54.490Z,71.25
2022-09-03T23:03:28.229Z,71.25
2022-09-03T23:06:04.578Z,71.08
2022-09-03T23:08:36.482Z,71.35
2022-09-03T23:11:10.840Z,70.87
2022-09-03T23:13:42.830Z,71.28
2022-09-03T23:16:18.639Z,71.16
2022-09-03T23:18:49.561Z,71.15
